Wilberforce, Canada
Current Conditions -  °F | °C
As of 7:00 AM on Monday 20 Oct 2014 (Local Time) from CYQA Reporting Station
Overcast Overcast  
Wind Chill: 34°   Ceiling: 7000
Heat Index: 39°   Visibility: 9mi
Dew Point: 37°   Wind: 7mph
Humidity: 93%   Direction: 140°SE
Pressure: 29.86"   Gusts: NA
Location:  45.03°N, 78.22°W
Report Text: CYQA 201100Z AUTO 14006KT 9SM OVC070 04/03 A2986 RMK SLP121
Loading
Personal Weather Stations






























Interactive Weather Map
Tropical Storm Tracking
New forecast layout! Learn more

10-Day Weather Forecast

Advertisements
Track Severe Weather on mobile